sensor_id;sensor_type;location;lat;lon;timestamp;temperature;humidity
53031;DHT22;38921;53.184;6.604;2022-07-29T00:02:17;14.40;1.00
53031;DHT22;38921;53.184;6.604;2022-07-29T00:04:43;14.40;1.00
53031;DHT22;38921;53.184;6.604;2022-07-29T00:07:09;14.40;1.00
53031;DHT22;38921;53.184;6.604;2022-07-29T00:09:34;14.50;1.00
53031;DHT22;38921;53.184;6.604;2022-07-29T00:12:00;14.50;1.00
53031;DHT22;38921;53.184;6.604;2022-07-29T00:14:26;14.50;1.00
53031;DHT22;38921;53.184;6.604;2022-07-29T00:16:52;14.50;1.00
53031;DHT22;38921;53.184;6.604;2022-07-29T00:19:17;14.50;1.00
53031;DHT22;38921;53.184;6.604;2022-07-29T00:24:27;13.90;1.00
53031;DHT22;38921;53.184;6.604;2022-07-29T00:26:53;14.50;1.00
53031;DHT22;38921;53.184;6.604;2022-07-29T00:29:19;14.40;1.00
53031;DHT22;38921;53.184;6.604;2022-07-29T00:31:45;14.50;1.00
53031;DHT22;38921;53.184;6.604;2022-07-29T00:34:10;14.50;1.00
53031;DHT22;38921;53.184;6.604;2022-07-29T00:36:56;14.50;1.00
53031;DHT22;38921;53.184;6.604;2022-07-29T00:39:22;14.40;1.00
53031;DHT22;38921;53.184;6.604;2022-07-29T00:41:48;14.40;1.00
53031;DHT22;38921;53.184;6.604;2022-07-29T00:44:14;14.50;1.00
53031;DHT22;38921;53.184;6.604;2022-07-29T00:46:39;14.40;1.00
53031;DHT22;38921;53.184;6.604;2022-07-29T00:49:05;12.90;1.00
53031;DHT22;38921;53.184;6.604;2022-07-29T00:54:17;14.40;1.00
53031;DHT22;38921;53.184;6.604;2022-07-29T00:56:42;14.40;1.00
53031;DHT22;38921;53.184;6.604;2022-07-29T00:59:08;14.40;1.00
53031;DHT22;38921;53.184;6.604;2022-07-29T01:01:33;14.40;1.00
53031;DHT22;38921;53.184;6.604;2022-07-29T01:03:59;14.40;1.00
53031;DHT22;38921;53.184;6.604;2022-07-29T01:06:25;14.40;1.00
53031;DHT22;38921;53.184;6.604;2022-07-29T01:08:50;14.40;1.00
53031;DHT22;38921;53.184;6.604;2022-07-29T01:11:16;14.40;1.00
53031;DHT22;38921;53.184;6.604;2022-07-29T01:13:42;14.40;1.00
53031;DHT22;38921;53.184;6.604;2022-07-29T01:16:18;14.40;1.00
53031;DHT22;38921;53.184;6.604;2022-07-29T01:18:46;14.40;1.00
53031;DHT22;38921;53.184;6.604;2022-07-29T01:21:35;14.40;1.00
53031;DHT22;38921;53.184;6.604;2022-07-29T01:29:24;14.30;1.00
53031;DHT22;38921;53.184;6.604;2022-07-29T01:31:59;14.30;1.00
53031;DHT22;38921;53.184;6.604;2022-07-29T01:34:45;14.40;1.00
53031;DHT22;38921;53.184;6.604;2022-07-29T01:39:45;14.30;1.00
53031;DHT22;38921;53.184;6.604;2022-07-29T01:44:46;14.30;1.00
53031;DHT22;38921;53.184;6.604;2022-07-29T01:47:14;14.30;1.00
53031;DHT22;38921;53.184;6.604;2022-07-29T01:49:42;14.40;1.00
53031;DHT22;38921;53.184;6.604;2022-07-29T01:52:20;14.30;1.00
53031;DHT22;38921;53.184;6.604;2022-07-29T01:54:54;14.40;1.00
53031;DHT22;38921;53.184;6.604;2022-07-29T01:57:21;14.30;1.00
53031;DHT22;38921;53.184;6.604;2022-07-29T01:59:50;14.40;1.00
53031;DHT22;38921;53.184;6.604;2022-07-29T02:02:16;14.40;1.00
53031;DHT22;38921;53.184;6.604;2022-07-29T02:04:44;14.40;1.00
53031;DHT22;38921;53.184;6.604;2022-07-29T02:07:15;14.40;1.00
53031;DHT22;38921;53.184;6.604;2022-07-29T02:09:42;14.50;1.00
53031;DHT22;38921;53.184;6.604;2022-07-29T02:12:09;14.50;1.00
53031;DHT22;38921;53.184;6.604;2022-07-29T02:14:42;14.50;1.00
53031;DHT22;38921;53.184;6.604;2022-07-29T02:17:09;14.50;1.00
53031;DHT22;38921;53.184;6.604;2022-07-29T02:19:36;14.50;1.00
53031;DHT22;38921;53.184;6.604;2022-07-29T02:22:03;15.10;1.00
53031;DHT22;38921;53.184;6.604;2022-07-29T02:24:29;14.50;1.00
53031;DHT22;38921;53.184;6.604;2022-07-29T02:26:56;14.50;1.00
53031;DHT22;38921;53.184;6.604;2022-07-29T02:29:23;14.50;1.00
53031;DHT22;38921;53.184;6.604;2022-07-29T02:31:50;14.60;1.00
53031;DHT22;38921;53.184;6.604;2022-07-29T02:34:17;14.50;1.00
53031;DHT22;38921;53.184;6.604;2022-07-29T02:36:43;14.50;1.00
53031;DHT22;38921;53.184;6.604;2022-07-29T02:39:09;14.50;1.00
53031;DHT22;38921;53.184;6.604;2022-07-29T02:41:50;14.50;1.00
53031;DHT22;38921;53.184;6.604;2022-07-29T02:44:16;14.60;1.00
53031;DHT22;38921;53.184;6.604;2022-07-29T02:46:49;14.60;1.00
53031;DHT22;38921;53.184;6.604;2022-07-29T02:52:01;14.50;1.00
53031;DHT22;38921;53.184;6.604;2022-07-29T02:54:33;14.50;1.00
53031;DHT22;38921;53.184;6.604;2022-07-29T02:57:00;14.50;1.00
53031;DHT22;38921;53.184;6.604;2022-07-29T02:59:27;14.60;1.00
53031;DHT22;38921;53.184;6.604;2022-07-29T03:01:55;14.50;1.00
53031;DHT22;38921;53.184;6.604;2022-07-29T03:04:23;14.60;1.00
53031;DHT22;38921;53.184;6.604;2022-07-29T03:06:49;14.50;1.00
53031;DHT22;38921;53.184;6.604;2022-07-29T03:09:16;14.50;1.00
53031;DHT22;38921;53.184;6.604;2022-07-29T03:11:42;14.50;1.00
53031;DHT22;38921;53.184;6.604;2022-07-29T03:14:09;14.50;1.00
53031;DHT22;38921;53.184;6.604;2022-07-29T03:16:34;14.50;1.00
53031;DHT22;38921;53.184;6.604;2022-07-29T03:19:02;14.50;1.00
53031;DHT22;38921;53.184;6.604;2022-07-29T03:21:28;14.60;1.00
53031;DHT22;38921;53.184;6.604;2022-07-29T03:23:54;13.70;1.00
53031;DHT22;38921;53.184;6.604;2022-07-29T03:26:19;14.50;1.00
53031;DHT22;38921;53.184;6.604;2022-07-29T03:28:45;14.60;1.00
53031;DHT22;38921;53.184;6.604;2022-07-29T03:31:11;14.50;1.00
53031;DHT22;38921;53.184;6.604;2022-07-29T03:33:36;14.50;1.00
53031;DHT22;38921;53.184;6.604;2022-07-29T03:36:02;14.50;1.00
53031;DHT22;38921;53.184;6.604;2022-07-29T03:38:28;14.50;1.00
53031;DHT22;38921;53.184;6.604;2022-07-29T03:40:56;14.50;1.00
53031;DHT22;38921;53.184;6.604;2022-07-29T03:43:22;14.50;1.00
53031;DHT22;38921;53.184;6.604;2022-07-29T03:45:49;14.50;1.00
53031;DHT22;38921;53.184;6.604;2022-07-29T03:48:16;14.50;1.00
53031;DHT22;38921;53.184;6.604;2022-07-29T03:50:42;14.50;1.00
53031;DHT22;38921;53.184;6.604;2022-07-29T03:53:08;14.50;1.00
53031;DHT22;38921;53.184;6.604;2022-07-29T03:55:36;14.50;1.00
53031;DHT22;38921;53.184;6.604;2022-07-29T03:58:02;14.50;1.00
53031;DHT22;38921;53.184;6.604;2022-07-29T04:00:28;14.50;1.00
53031;DHT22;38921;53.184;6.604;2022-07-29T04:02:55;14.50;1.00
53031;DHT22;38921;53.184;6.604;2022-07-29T04:05:21;14.50;1.00
53031;DHT22;38921;53.184;6.604;2022-07-29T04:07:47;14.50;1.00
53031;DHT22;38921;53.184;6.604;2022-07-29T04:10:13;14.50;1.00
53031;DHT22;38921;53.184;6.604;2022-07-29T04:12:40;14.50;1.00
53031;DHT22;38921;53.184;6.604;2022-07-29T04:15:06;14.50;1.00
53031;DHT22;38921;53.184;6.604;2022-07-29T04:17:32;14.50;1.00
53031;DHT22;38921;53.184;6.604;2022-07-29T04:19:58;14.60;1.00
53031;DHT22;38921;53.184;6.604;2022-07-29T04:22:24;14.60;1.00
53031;DHT22;38921;53.184;6.604;2022-07-29T04:24:49;14.60;1.00
53031;DHT22;38921;53.184;6.604;2022-07-29T04:36:45;14.60;1.00
53031;DHT22;38921;53.184;6.604;2022-07-29T04:39:11;14.60;1.00
53031;DHT22;38921;53.184;6.604;2022-07-29T04:41:37;14.70;1.00
53031;DHT22;38921;53.184;6.604;2022-07-29T04:44:03;14.60;1.00
53031;DHT22;38921;53.184;6.604;2022-07-29T04:46:30;14.70;1.00
53031;DHT22;38921;53.184;6.604;2022-07-29T04:48:56;14.60;1.00
53031;DHT22;38921;53.184;6.604;2022-07-29T04:51:22;14.70;1.00
53031;DHT22;38921;53.184;6.604;2022-07-29T04:53:47;14.70;1.00
53031;DHT22;38921;53.184;6.604;2022-07-29T04:56:13;14.70;1.00
53031;DHT22;38921;53.184;6.604;2022-07-29T04:58:39;14.70;1.00
53031;DHT22;38921;53.184;6.604;2022-07-29T05:01:04;14.70;1.00
53031;DHT22;38921;53.184;6.604;2022-07-29T05:03:30;14.80;1.00
53031;DHT22;38921;53.184;6.604;2022-07-29T05:05:56;14.70;1.00
53031;DHT22;38921;53.184;6.604;2022-07-29T05:08:21;14.70;1.00
53031;DHT22;38921;53.184;6.604;2022-07-29T05:10:47;14.80;1.00
53031;DHT22;38921;53.184;6.604;2022-07-29T05:13:13;14.80;1.00
53031;DHT22;38921;53.184;6.604;2022-07-29T05:15:38;14.80;1.00
53031;DHT22;38921;53.184;6.604;2022-07-29T05:18:04;14.80;1.00
53031;DHT22;38921;53.184;6.604;2022-07-29T05:20:30;14.80;1.00
53031;DHT22;38921;53.184;6.604;2022-07-29T05:22:59;14.80;1.00
53031;DHT22;38921;53.184;6.604;2022-07-29T05:25:25;14.90;1.00
53031;DHT22;38921;53.184;6.604;2022-07-29T05:27:51;14.90;1.00
53031;DHT22;38921;53.184;6.604;2022-07-29T05:30:17;14.90;1.00
53031;DHT22;38921;53.184;6.604;2022-07-29T05:32:42;15.60;1.00
53031;DHT22;38921;53.184;6.604;2022-07-29T05:35:08;15.00;1.00
53031;DHT22;38921;53.184;6.604;2022-07-29T05:40:18;15.10;1.00
53031;DHT22;38921;53.184;6.604;2022-07-29T05:42:44;15.20;1.00
53031;DHT22;38921;53.184;6.604;2022-07-29T05:45:10;15.20;1.00
53031;DHT22;38921;53.184;6.604;2022-07-29T05:47:35;15.30;1.00
53031;DHT22;38921;53.184;6.604;2022-07-29T05:50:01;15.30;1.00
53031;DHT22;38921;53.184;6.604;2022-07-29T05:52:26;15.40;1.00
53031;DHT22;38921;53.184;6.604;2022-07-29T05:54:52;15.40;1.00
53031;DHT22;38921;53.184;6.604;2022-07-29T05:57:18;15.40;1.00
53031;DHT22;38921;53.184;6.604;2022-07-29T05:59:44;15.50;1.00
53031;DHT22;38921;53.184;6.604;2022-07-29T06:02:10;15.50;1.00
53031;DHT22;38921;53.184;6.604;2022-07-29T06:04:35;15.50;1.00
53031;DHT22;38921;53.184;6.604;2022-07-29T06:07:01;13.90;1.00
53031;DHT22;38921;53.184;6.604;2022-07-29T06:09:27;15.60;1.00
53031;DHT22;38921;53.184;6.604;2022-07-29T06:11:52;15.70;1.00
53031;DHT22;38921;53.184;6.604;2022-07-29T06:14:18;15.70;1.00
53031;DHT22;38921;53.184;6.604;2022-07-29T06:16:44;15.60;1.00
53031;DHT22;38921;53.184;6.604;2022-07-29T06:19:09;15.80;1.00
53031;DHT22;38921;53.184;6.604;2022-07-29T06:21:35;15.80;1.00
53031;DHT22;38921;53.184;6.604;2022-07-29T06:24:01;16.10;1.00
53031;DHT22;38921;53.184;6.604;2022-07-29T06:29:11;16.00;1.00
53031;DHT22;38921;53.184;6.604;2022-07-29T06:31:37;16.10;1.00
53031;DHT22;38921;53.184;6.604;2022-07-29T06:34:03;16.30;1.00
53031;DHT22;38921;53.184;6.604;2022-07-29T06:39:15;16.40;1.00
53031;DHT22;38921;53.184;6.604;2022-07-29T06:41:41;16.50;1.00
53031;DHT22;38921;53.184;6.604;2022-07-29T06:44:07;16.60;1.00
53031;DHT22;38921;53.184;6.604;2022-07-29T06:49:42;16.80;1.00
53031;DHT22;38921;53.184;6.604;2022-07-29T06:54:52;16.70;1.00
53031;DHT22;38921;53.184;6.604;2022-07-29T06:57:20;16.80;1.00
53031;DHT22;38921;53.184;6.604;2022-07-29T06:59:52;17.10;1.00
53031;DHT22;38921;53.184;6.604;2022-07-29T07:02:21;17.20;1.00
53031;DHT22;38921;53.184;6.604;2022-07-29T07:08:23;17.50;1.00
53031;DHT22;38921;53.184;6.604;2022-07-29T07:10:49;17.60;1.00
53031;DHT22;38921;53.184;6.604;2022-07-29T07:13:15;17.60;1.00
53031;DHT22;38921;53.184;6.604;2022-07-29T07:15:42;17.70;1.00
53031;DHT22;38921;53.184;6.604;2022-07-29T07:18:08;17.70;1.00
53031;DHT22;38921;53.184;6.604;2022-07-29T07:23:56;17.80;1.00
53031;DHT22;38921;53.184;6.604;2022-07-29T07:29:43;17.80;1.00
53031;DHT22;38921;53.184;6.604;2022-07-29T07:32:09;17.90;1.00
53031;DHT22;38921;53.184;6.604;2022-07-29T07:37:57;18.00;1.00
53031;DHT22;38921;53.184;6.604;2022-07-29T07:40:25;18.00;1.00
53031;DHT22;38921;53.184;6.604;2022-07-29T07:42:51;18.00;1.00
53031;DHT22;38921;53.184;6.604;2022-07-29T07:45:16;18.10;1.00
53031;DHT22;38921;53.184;6.604;2022-07-29T07:47:42;18.10;1.00
53031;DHT22;38921;53.184;6.604;2022-07-29T07:50:09;18.30;1.00
53031;DHT22;38921;53.184;6.604;2022-07-29T07:52:37;18.40;1.00
53031;DHT22;38921;53.184;6.604;2022-07-29T07:55:10;18.60;1.00
53031;DHT22;38921;53.184;6.604;2022-07-29T07:57:36;18.60;1.00
53031;DHT22;38921;53.184;6.604;2022-07-29T08:00:02;18.70;1.00
53031;DHT22;38921;53.184;6.604;2022-07-29T08:02:28;18.70;1.00
53031;DHT22;38921;53.184;6.604;2022-07-29T08:04:54;18.60;1.00
53031;DHT22;38921;53.184;6.604;2022-07-29T08:13:49;18.60;1.00
53031;DHT22;38921;53.184;6.604;2022-07-29T08:16:17;18.50;1.00
53031;DHT22;38921;53.184;6.604;2022-07-29T08:25:52;18.40;1.00
53031;DHT22;38921;53.184;6.604;2022-07-29T08:28:18;18.80;1.00
53031;DHT22;38921;53.184;6.604;2022-07-29T08:44:05;19.40;1.00
53031;DHT22;38921;53.184;6.604;2022-07-29T08:46:31;19.40;1.00
53031;DHT22;38921;53.184;6.604;2022-07-29T08:48:56;19.30;1.00
53031;DHT22;38921;53.184;6.604;2022-07-29T08:51:22;19.30;1.00
53031;DHT22;38921;53.184;6.604;2022-07-29T08:53:49;19.20;1.00
53031;DHT22;38921;53.184;6.604;2022-07-29T08:56:15;19.40;1.00
53031;DHT22;38921;53.184;6.604;2022-07-29T08:58:44;19.30;1.00
53031;DHT22;38921;53.184;6.604;2022-07-29T09:01:10;19.20;1.00
53031;DHT22;38921;53.184;6.604;2022-07-29T09:03:38;19.20;1.00
53031;DHT22;38921;53.184;6.604;2022-07-29T09:06:05;19.30;1.00
53031;DHT22;38921;53.184;6.604;2022-07-29T09:08:31;19.30;1.00
53031;DHT22;38921;53.184;6.604;2022-07-29T09:10:57;19.20;1.00
53031;DHT22;38921;53.184;6.604;2022-07-29T09:13:24;19.30;1.00
53031;DHT22;38921;53.184;6.604;2022-07-29T09:15:50;19.40;1.00
53031;DHT22;38921;53.184;6.604;2022-07-29T09:18:32;19.50;1.00
53031;DHT22;38921;53.184;6.604;2022-07-29T09:21:06;19.50;1.00
53031;DHT22;38921;53.184;6.604;2022-07-29T09:32:29;19.60;1.00
53031;DHT22;38921;53.184;6.604;2022-07-29T09:38:17;19.70;1.00
53031;DHT22;38921;53.184;6.604;2022-07-29T09:44:05;19.50;1.00
53031;DHT22;38921;53.184;6.604;2022-07-29T09:46:32;19.40;1.00
53031;DHT22;38921;53.184;6.604;2022-07-29T09:54:38;19.30;1.00
53031;DHT22;38921;53.184;6.604;2022-07-29T09:57:26;19.30;1.00
53031;DHT22;38921;53.184;6.604;2022-07-29T10:02:32;19.40;1.00
53031;DHT22;38921;53.184;6.604;2022-07-29T10:04:59;19.60;1.00
53031;DHT22;38921;53.184;6.604;2022-07-29T10:07:25;19.60;1.00
53031;DHT22;38921;53.184;6.604;2022-07-29T10:09:55;19.70;1.00
53031;DHT22;38921;53.184;6.604;2022-07-29T10:12:21;19.80;1.00
53031;DHT22;38921;53.184;6.604;2022-07-29T10:18:10;20.00;1.00
53031;DHT22;38921;53.184;6.604;2022-07-29T10:20:36;20.00;1.00
53031;DHT22;38921;53.184;6.604;2022-07-29T10:23:02;20.00;1.00
53031;DHT22;38921;53.184;6.604;2022-07-29T10:25:28;20.10;1.00
53031;DHT22;38921;53.184;6.604;2022-07-29T10:27:54;20.10;1.00
53031;DHT22;38921;53.184;6.604;2022-07-29T10:30:21;20.10;1.00
53031;DHT22;38921;53.184;6.604;2022-07-29T10:43:33;20.20;1.00
53031;DHT22;38921;53.184;6.604;2022-07-29T10:46:01;20.30;1.00
53031;DHT22;38921;53.184;6.604;2022-07-29T10:48:27;20.30;1.00
53031;DHT22;38921;53.184;6.604;2022-07-29T10:50:54;20.40;1.00
53031;DHT22;38921;53.184;6.604;2022-07-29T10:53:21;20.50;1.00
53031;DHT22;38921;53.184;6.604;2022-07-29T10:55:46;20.50;1.00
53031;DHT22;38921;53.184;6.604;2022-07-29T11:00:40;20.60;1.00
53031;DHT22;38921;53.184;6.604;2022-07-29T11:03:06;20.60;1.00
53031;DHT22;38921;53.184;6.604;2022-07-29T11:05:50;20.60;1.00
53031;DHT22;38921;53.184;6.604;2022-07-29T11:08:17;20.60;1.00
53031;DHT22;38921;53.184;6.604;2022-07-29T11:10:44;20.50;1.00
53031;DHT22;38921;53.184;6.604;2022-07-29T11:13:09;20.40;1.00
53031;DHT22;38921;53.184;6.604;2022-07-29T11:15:54;20.30;1.00
53031;DHT22;38921;53.184;6.604;2022-07-29T11:18:20;20.40;1.00
53031;DHT22;38921;53.184;6.604;2022-07-29T11:20:46;20.40;1.00
53031;DHT22;38921;53.184;6.604;2022-07-29T11:28:48;20.80;1.00
53031;DHT22;38921;53.184;6.604;2022-07-29T11:31:16;20.90;1.00
53031;DHT22;38921;53.184;6.604;2022-07-29T11:33:41;21.10;1.00
53031;DHT22;38921;53.184;6.604;2022-07-29T11:36:08;21.20;1.00
53031;DHT22;38921;53.184;6.604;2022-07-29T11:38:35;21.30;1.00
53031;DHT22;38921;53.184;6.604;2022-07-29T11:43:45;21.80;1.00
53031;DHT22;38921;53.184;6.604;2022-07-29T11:51:32;22.70;1.00
53031;DHT22;38921;53.184;6.604;2022-07-29T11:53:58;22.80;1.00
53031;DHT22;38921;53.184;6.604;2022-07-29T11:56:25;22.90;1.00
53031;DHT22;38921;53.184;6.604;2022-07-29T11:59:01;22.90;1.00
53031;DHT22;38921;53.184;6.604;2022-07-29T12:01:27;22.90;1.00
53031;DHT22;38921;53.184;6.604;2022-07-29T12:04:01;22.80;1.00
53031;DHT22;38921;53.184;6.604;2022-07-29T12:06:27;22.80;1.00
53031;DHT22;38921;53.184;6.604;2022-07-29T12:08:53;22.80;1.00
53031;DHT22;38921;53.184;6.604;2022-07-29T12:11:19;22.80;1.00
53031;DHT22;38921;53.184;6.604;2022-07-29T12:13:45;22.90;1.00
53031;DHT22;38921;53.184;6.604;2022-07-29T12:16:11;23.00;1.00
53031;DHT22;38921;53.184;6.604;2022-07-29T12:18:37;23.10;1.00
53031;DHT22;38921;53.184;6.604;2022-07-29T12:21:02;23.00;1.00
53031;DHT22;38921;53.184;6.604;2022-07-29T12:23:31;23.20;1.00
53031;DHT22;38921;53.184;6.604;2022-07-29T12:25:57;23.40;1.00
53031;DHT22;38921;53.184;6.604;2022-07-29T12:28:23;23.50;1.00
53031;DHT22;38921;53.184;6.604;2022-07-29T12:30:50;23.50;1.00
53031;DHT22;38921;53.184;6.604;2022-07-29T12:33:23;23.50;1.00
53031;DHT22;38921;53.184;6.604;2022-07-29T12:35:56;23.50;1.00
53031;DHT22;38921;53.184;6.604;2022-07-29T12:38:22;23.50;1.00
53031;DHT22;38921;53.184;6.604;2022-07-29T12:40:48;23.60;1.00
53031;DHT22;38921;53.184;6.604;2022-07-29T12:43:15;23.60;1.00
53031;DHT22;38921;53.184;6.604;2022-07-29T12:45:45;23.70;1.00
53031;DHT22;38921;53.184;6.604;2022-07-29T12:48:11;23.60;1.00
53031;DHT22;38921;53.184;6.604;2022-07-29T12:50:51;23.70;1.00
53031;DHT22;38921;53.184;6.604;2022-07-29T12:53:18;23.70;1.00
53031;DHT22;38921;53.184;6.604;2022-07-29T12:55:45;23.70;1.00
53031;DHT22;38921;53.184;6.604;2022-07-29T13:03:27;23.80;1.00
53031;DHT22;38921;53.184;6.604;2022-07-29T13:05:53;24.00;1.00
53031;DHT22;38921;53.184;6.604;2022-07-29T13:08:18;24.00;1.00
53031;DHT22;38921;53.184;6.604;2022-07-29T13:10:45;24.20;1.00
53031;DHT22;38921;53.184;6.604;2022-07-29T13:13:11;24.20;1.00
53031;DHT22;38921;53.184;6.604;2022-07-29T13:15:44;24.20;1.00
53031;DHT22;38921;53.184;6.604;2022-07-29T13:18:26;24.30;1.00
53031;DHT22;38921;53.184;6.604;2022-07-29T13:20:52;24.40;1.00
53031;DHT22;38921;53.184;6.604;2022-07-29T13:23:18;24.40;1.00
53031;DHT22;38921;53.184;6.604;2022-07-29T13:25:43;24.30;1.00
53031;DHT22;38921;53.184;6.604;2022-07-29T13:28:09;24.30;1.00
53031;DHT22;38921;53.184;6.604;2022-07-29T13:30:36;24.30;1.00
53031;DHT22;38921;53.184;6.604;2022-07-29T13:33:02;24.30;1.00
53031;DHT22;38921;53.184;6.604;2022-07-29T13:35:28;24.30;1.00
53031;DHT22;38921;53.184;6.604;2022-07-29T13:37:55;24.20;1.00
53031;DHT22;38921;53.184;6.604;2022-07-29T13:40:20;24.10;1.00
53031;DHT22;38921;53.184;6.604;2022-07-29T13:42:46;24.00;1.00
53031;DHT22;38921;53.184;6.604;2022-07-29T13:45:12;23.90;1.00
53031;DHT22;38921;53.184;6.604;2022-07-29T13:47:37;23.90;1.00
53031;DHT22;38921;53.184;6.604;2022-07-29T13:50:04;23.90;1.00
53031;DHT22;38921;53.184;6.604;2022-07-29T13:52:30;24.00;1.00
53031;DHT22;38921;53.184;6.604;2022-07-29T13:54:55;24.00;1.00
53031;DHT22;38921;53.184;6.604;2022-07-29T13:57:21;24.00;1.00
53031;DHT22;38921;53.184;6.604;2022-07-29T13:59:46;23.90;1.00
53031;DHT22;38921;53.184;6.604;2022-07-29T14:02:12;24.00;1.00
53031;DHT22;38921;53.184;6.604;2022-07-29T14:04:38;24.00;1.00
53031;DHT22;38921;53.184;6.604;2022-07-29T14:07:05;24.00;1.00
53031;DHT22;38921;53.184;6.604;2022-07-29T14:09:31;24.00;1.00
53031;DHT22;38921;53.184;6.604;2022-07-29T14:11:57;24.00;1.00
53031;DHT22;38921;53.184;6.604;2022-07-29T14:14:23;24.10;1.00
53031;DHT22;38921;53.184;6.604;2022-07-29T14:16:48;24.00;1.00
53031;DHT22;38921;53.184;6.604;2022-07-29T14:19:14;24.10;1.00
53031;DHT22;38921;53.184;6.604;2022-07-29T14:21:39;24.10;1.00
53031;DHT22;38921;53.184;6.604;2022-07-29T14:24:05;24.10;1.00
53031;DHT22;38921;53.184;6.604;2022-07-29T14:26:31;24.10;1.00
53031;DHT22;38921;53.184;6.604;2022-07-29T14:28:57;24.20;1.00
53031;DHT22;38921;53.184;6.604;2022-07-29T14:31:22;24.20;1.00
53031;DHT22;38921;53.184;6.604;2022-07-29T14:33:48;24.10;1.00
53031;DHT22;38921;53.184;6.604;2022-07-29T14:36:14;24.10;1.00
53031;DHT22;38921;53.184;6.604;2022-07-29T14:38:40;24.00;1.00
53031;DHT22;38921;53.184;6.604;2022-07-29T14:41:07;24.00;1.00
53031;DHT22;38921;53.184;6.604;2022-07-29T14:43:33;24.00;1.00
53031;DHT22;38921;53.184;6.604;2022-07-29T14:46:00;23.90;1.00
53031;DHT22;38921;53.184;6.604;2022-07-29T14:48:25;23.90;1.00
53031;DHT22;38921;53.184;6.604;2022-07-29T14:57:01;23.90;1.00
53031;DHT22;38921;53.184;6.604;2022-07-29T14:59:26;23.90;1.00
53031;DHT22;38921;53.184;6.604;2022-07-29T15:01:52;23.90;1.00
53031;DHT22;38921;53.184;6.604;2022-07-29T15:04:18;23.90;1.00
53031;DHT22;38921;53.184;6.604;2022-07-29T15:06:43;23.90;1.00
53031;DHT22;38921;53.184;6.604;2022-07-29T15:09:09;23.80;1.00
53031;DHT22;38921;53.184;6.604;2022-07-29T15:11:34;23.80;1.00
53031;DHT22;38921;53.184;6.604;2022-07-29T15:14:00;23.80;1.00
53031;DHT22;38921;53.184;6.604;2022-07-29T15:16:25;23.70;1.00
53031;DHT22;38921;53.184;6.604;2022-07-29T15:18:51;23.70;1.00
53031;DHT22;38921;53.184;6.604;2022-07-29T15:21:16;23.80;1.00
53031;DHT22;38921;53.184;6.604;2022-07-29T15:23:42;23.70;1.00
53031;DHT22;38921;53.184;6.604;2022-07-29T15:26:08;23.70;1.00
53031;DHT22;38921;53.184;6.604;2022-07-29T15:28:33;23.70;1.00
53031;DHT22;38921;53.184;6.604;2022-07-29T15:30:59;23.70;1.00
53031;DHT22;38921;53.184;6.604;2022-07-29T15:33:25;23.70;1.00
53031;DHT22;38921;53.184;6.604;2022-07-29T15:35:50;23.60;1.00
53031;DHT22;38921;53.184;6.604;2022-07-29T15:38:16;23.60;1.00
53031;DHT22;38921;53.184;6.604;2022-07-29T15:43:26;23.60;1.00
53031;DHT22;38921;53.184;6.604;2022-07-29T15:45:51;23.60;1.00
53031;DHT22;38921;53.184;6.604;2022-07-29T15:48:39;23.60;1.00
53031;DHT22;38921;53.184;6.604;2022-07-29T15:51:05;23.60;1.00
53031;DHT22;38921;53.184;6.604;2022-07-29T15:53:30;23.60;1.00
53031;DHT22;38921;53.184;6.604;2022-07-29T15:55:56;23.60;1.00
53031;DHT22;38921;53.184;6.604;2022-07-29T15:58:22;23.60;1.00
53031;DHT22;38921;53.184;6.604;2022-07-29T16:00:47;23.50;1.00
53031;DHT22;38921;53.184;6.604;2022-07-29T16:03:13;23.60;1.00
53031;DHT22;38921;53.184;6.604;2022-07-29T16:05:39;23.50;1.00
53031;DHT22;38921;53.184;6.604;2022-07-29T16:08:05;23.50;1.00
53031;DHT22;38921;53.184;6.604;2022-07-29T16:10:30;23.50;1.00
53031;DHT22;38921;53.184;6.604;2022-07-29T16:12:56;23.50;1.00
53031;DHT22;38921;53.184;6.604;2022-07-29T16:15:21;23.40;1.00
53031;DHT22;38921;53.184;6.604;2022-07-29T16:17:47;23.40;1.00
53031;DHT22;38921;53.184;6.604;2022-07-29T16:20:14;23.40;1.00
53031;DHT22;38921;53.184;6.604;2022-07-29T16:22:40;23.40;1.00
53031;DHT22;38921;53.184;6.604;2022-07-29T16:28:12;23.30;1.00
53031;DHT22;38921;53.184;6.604;2022-07-29T16:30:38;23.30;1.00
53031;DHT22;38921;53.184;6.604;2022-07-29T16:33:03;23.20;1.00
53031;DHT22;38921;53.184;6.604;2022-07-29T16:35:29;23.20;1.00
53031;DHT22;38921;53.184;6.604;2022-07-29T16:37:55;23.20;1.00
53031;DHT22;38921;53.184;6.604;2022-07-29T16:43:25;23.10;1.00
53031;DHT22;38921;53.184;6.604;2022-07-29T16:45:50;23.10;1.00
53031;DHT22;38921;53.184;6.604;2022-07-29T16:48:16;23.00;1.00
53031;DHT22;38921;53.184;6.604;2022-07-29T16:50:41;23.00;1.00
53031;DHT22;38921;53.184;6.604;2022-07-29T16:53:07;22.90;1.00
53031;DHT22;38921;53.184;6.604;2022-07-29T16:55:32;22.90;1.00
53031;DHT22;38921;53.184;6.604;2022-07-29T16:57:58;22.80;1.00
53031;DHT22;38921;53.184;6.604;2022-07-29T17:03:08;22.80;1.00
53031;DHT22;38921;53.184;6.604;2022-07-29T17:05:34;22.70;1.00
53031;DHT22;38921;53.184;6.604;2022-07-29T17:07:59;22.70;1.00
53031;DHT22;38921;53.184;6.604;2022-07-29T17:10:25;22.70;1.00
53031;DHT22;38921;53.184;6.604;2022-07-29T17:12:51;22.60;1.00
53031;DHT22;38921;53.184;6.604;2022-07-29T17:15:16;22.60;1.00
53031;DHT22;38921;53.184;6.604;2022-07-29T17:17:43;22.60;1.00
53031;DHT22;38921;53.184;6.604;2022-07-29T17:20:09;22.60;1.00
53031;DHT22;38921;53.184;6.604;2022-07-29T17:22:35;22.50;1.00
53031;DHT22;38921;53.184;6.604;2022-07-29T17:25:01;22.50;1.00
53031;DHT22;38921;53.184;6.604;2022-07-29T17:27:26;22.40;1.00
53031;DHT22;38921;53.184;6.604;2022-07-29T17:29:52;22.40;1.00
53031;DHT22;38921;53.184;6.604;2022-07-29T17:32:18;22.30;1.00
53031;DHT22;38921;53.184;6.604;2022-07-29T17:34:43;22.30;1.00
53031;DHT22;38921;53.184;6.604;2022-07-29T17:37:10;22.20;1.00
53031;DHT22;38921;53.184;6.604;2022-07-29T17:39:36;22.20;1.00
53031;DHT22;38921;53.184;6.604;2022-07-29T17:42:05;22.10;1.00
53031;DHT22;38921;53.184;6.604;2022-07-29T17:44:30;22.10;1.00
53031;DHT22;38921;53.184;6.604;2022-07-29T17:46:56;22.00;1.00
53031;DHT22;38921;53.184;6.604;2022-07-29T17:49:21;21.90;1.00
53031;DHT22;38921;53.184;6.604;2022-07-29T17:51:47;21.90;1.00
53031;DHT22;38921;53.184;6.604;2022-07-29T17:54:12;21.90;1.00
53031;DHT22;38921;53.184;6.604;2022-07-29T17:56:38;21.80;1.00
53031;DHT22;38921;53.184;6.604;2022-07-29T17:59:04;21.80;1.00
53031;DHT22;38921;53.184;6.604;2022-07-29T18:01:37;21.70;1.00
53031;DHT22;38921;53.184;6.604;2022-07-29T18:04:05;21.60;1.00
53031;DHT22;38921;53.184;6.604;2022-07-29T18:06:31;21.60;1.00
53031;DHT22;38921;53.184;6.604;2022-07-29T18:08:57;21.60;1.00
53031;DHT22;38921;53.184;6.604;2022-07-29T18:11:22;21.60;1.00
53031;DHT22;38921;53.184;6.604;2022-07-29T18:13:48;21.60;1.00
53031;DHT22;38921;53.184;6.604;2022-07-29T18:16:13;21.50;1.00
53031;DHT22;38921;53.184;6.604;2022-07-29T18:18:39;21.50;1.00
53031;DHT22;38921;53.184;6.604;2022-07-29T18:21:05;21.50;1.00
53031;DHT22;38921;53.184;6.604;2022-07-29T18:23:31;21.50;1.00